createdAt,value
2023-01-29T00:03:17.176Z,4.80
2023-01-29T00:08:19.241Z,4.80
2023-01-29T00:13:21.324Z,4.80
2023-01-29T00:18:23.378Z,4.80
2023-01-29T00:23:25.510Z,4.80
2023-01-29T00:28:27.528Z,4.80
2023-01-29T00:33:31.019Z,4.90
2023-01-29T00:38:33.692Z,4.80
2023-01-29T00:43:55.244Z,4.80
2023-01-29T00:48:57.631Z,4.80
2023-01-29T00:54:00.335Z,4.90
2023-01-29T00:59:02.608Z,4.60
2023-01-29T01:04:04.941Z,4.80
2023-01-29T01:09:25.629Z,4.80
2023-01-29T01:14:27.701Z,4.70
2023-01-29T01:19:29.709Z,4.70
2023-01-29T01:24:32.113Z,4.80
2023-01-29T01:29:34.651Z,4.80
2023-01-29T01:34:36.970Z,4.70
2023-01-29T01:39:38.988Z,4.70
2023-01-29T01:49:44.855Z,4.80
2023-01-29T01:54:47.296Z,4.80
2023-01-29T01:59:52.433Z,4.70
2023-01-29T02:05:13.448Z,4.80
2023-01-29T02:10:17.035Z,4.80
2023-01-29T02:15:19.378Z,4.80
2023-01-29T02:20:26.403Z,4.80
2023-01-29T02:25:31.858Z,4.80
2023-01-29T02:30:37.043Z,4.80
2023-01-29T02:35:42.598Z,4.70
2023-01-29T02:40:47.425Z,4.80
2023-01-29T02:46:04.768Z,4.40
2023-01-29T02:51:10.532Z,4.70
2023-01-29T02:56:18.262Z,4.70
2023-01-29T03:01:30.161Z,4.70
2023-01-29T03:06:37.559Z,4.60
2023-01-29T03:11:41.812Z,4.60
2023-01-29T03:16:53.785Z,4.50
2023-01-29T03:22:00.175Z,4.40
2023-01-29T03:27:22.514Z,4.30
2023-01-29T03:32:26.520Z,4.20
2023-01-29T03:37:45.879Z,4.20
2023-01-29T03:42:51.213Z,4.10
2023-01-29T03:47:57.298Z,4.10
2023-01-29T03:52:59.305Z,4.00
2023-01-29T03:58:24.043Z,4.00
2023-01-29T04:03:33.158Z,4.00
2023-01-29T04:08:43.013Z,4.00
2023-01-29T04:13:45.752Z,4.00
2023-01-29T04:18:50.283Z,4.00
2023-01-29T04:23:54.269Z,4.10
2023-01-29T04:29:02.602Z,4.10
2023-01-29T04:34:23.449Z,4.20
2023-01-29T04:39:31.924Z,4.20
2023-01-29T04:44:44.710Z,4.20
2023-01-29T04:49:46.766Z,4.20
2023-01-29T04:54:56.805Z,4.30
2023-01-29T05:00:02.003Z,4.30
2023-01-29T05:05:06.076Z,4.30
2023-01-29T05:15:15.468Z,4.30
2023-01-29T05:20:17.962Z,4.30
2023-01-29T05:25:23.130Z,4.20
2023-01-29T05:30:25.126Z,4.20
2023-01-29T05:35:28.442Z,4.20
2023-01-29T05:40:30.604Z,4.10
2023-01-29T05:45:32.990Z,4.10
2023-01-29T05:50:35.331Z,4.20
2023-01-29T05:55:37.364Z,4.10
2023-01-29T06:00:39.975Z,4.20
2023-01-29T06:05:42.052Z,4.20
2023-01-29T06:10:44.050Z,4.20
2023-01-29T06:15:46.143Z,4.40
2023-01-29T06:20:48.169Z,4.30
2023-01-29T06:25:50.119Z,4.20
2023-01-29T06:30:52.128Z,4.20
2023-01-29T06:35:57.987Z,4.20
2023-01-29T06:46:02.506Z,4.20
2023-01-29T06:51:05.604Z,4.30
2023-01-29T06:56:07.796Z,4.20
2023-01-29T07:01:11.130Z,4.20
2023-01-29T07:06:14.678Z,4.20
2023-01-29T07:11:17.172Z,4.20
2023-01-29T07:16:19.416Z,4.20
2023-01-29T07:21:21.624Z,4.20
2023-01-29T07:26:23.753Z,4.20
2023-01-29T07:31:25.898Z,4.10
2023-01-29T07:36:29.891Z,4.20
2023-01-29T07:41:31.922Z,4.20
2023-01-29T07:46:34.761Z,4.20
2023-01-29T07:51:36.741Z,4.20
2023-01-29T07:56:38.764Z,4.20
2023-01-29T08:01:40.759Z,4.20
2023-01-29T08:06:42.753Z,4.20
2023-01-29T08:11:44.760Z,4.20
2023-01-29T08:16:46.806Z,4.20
2023-01-29T08:21:48.853Z,4.20
2023-01-29T08:26:50.895Z,4.30
2023-01-29T08:31:53.265Z,4.40
2023-01-29T08:36:55.357Z,4.50
2023-01-29T08:41:57.422Z,4.60
2023-01-29T08:46:59.490Z,4.60
2023-01-29T08:52:03.140Z,4.80
2023-01-29T08:57:06.570Z,4.80
2023-01-29T09:02:09.176Z,4.80
2023-01-29T09:07:11.307Z,4.90
2023-01-29T09:12:13.438Z,4.90
2023-01-29T09:17:15.469Z,5.00
2023-01-29T09:22:17.673Z,5.10
2023-01-29T09:27:19.744Z,5.10
2023-01-29T09:32:49.748Z,5.20
2023-01-29T09:37:46.994Z,5.30
2023-01-29T09:42:53.952Z,5.30
2023-01-29T09:47:58.124Z,5.40
2023-01-29T09:53:19.018Z,5.60
2023-01-29T09:58:25.585Z,5.70
2023-01-29T10:03:50.858Z,5.80
2023-01-29T10:08:55.865Z,5.90
2023-01-29T10:14:00.895Z,6.00
2023-01-29T10:19:02.888Z,6.00
2023-01-29T10:24:23.914Z,6.30
2023-01-29T10:29:26.890Z,6.00
2023-01-29T10:34:35.564Z,6.10
2023-01-29T10:39:37.614Z,6.00
2023-01-29T10:44:39.660Z,6.20
2023-01-29T10:49:52.296Z,6.10
2023-01-29T10:55:12.775Z,6.10
2023-01-29T11:00:47.219Z,6.10
2023-01-29T11:05:51.314Z,6.00
2023-01-29T11:10:53.293Z,6.00
2023-01-29T11:15:55.452Z,6.00
2023-01-29T11:21:02.840Z,6.00
2023-01-29T11:26:07.115Z,6.00
2023-01-29T11:31:35.378Z,6.30
2023-01-29T11:36:38.643Z,6.30
2023-01-29T11:42:00.359Z,6.50
2023-01-29T11:47:11.542Z,6.90
2023-01-29T11:52:15.168Z,7.00
2023-01-29T11:57:23.651Z,7.30
2023-01-29T12:02:28.243Z,7.50
2023-01-29T12:07:30.766Z,7.70
2023-01-29T12:12:32.838Z,7.90
2023-01-29T12:17:38.137Z,8.10
2023-01-29T12:22:45.148Z,8.20
2023-01-29T12:28:13.601Z,8.50
2023-01-29T12:33:37.551Z,8.30
2023-01-29T12:38:41.174Z,8.40
2023-01-29T12:43:48.137Z,8.70
2023-01-29T12:48:50.714Z,8.60
2023-01-29T12:53:52.783Z,8.80
2023-01-29T12:58:56.219Z,8.80
2023-01-29T13:04:11.725Z,8.80
2023-01-29T13:09:15.617Z,8.50
2023-01-29T13:14:23.317Z,9.10
2023-01-29T13:19:31.822Z,9.10
2023-01-29T13:24:37.117Z,9.20
2023-01-29T13:29:39.208Z,9.00
2023-01-29T13:34:45.437Z,9.00
2023-01-29T13:39:51.893Z,9.20
2023-01-29T13:44:57.684Z,9.30
2023-01-29T13:50:02.141Z,9.50
2023-01-29T13:55:07.902Z,9.70
2023-01-29T14:00:22.322Z,9.90
2023-01-29T14:05:30.871Z,10.00
2023-01-29T14:10:34.126Z,10.20
2023-01-29T14:15:36.907Z,10.40
2023-01-29T14:20:45.993Z,10.40
2023-01-29T14:25:48.544Z,10.30
2023-01-29T14:30:51.160Z,10.20
2023-01-29T14:35:56.199Z,10.20
2023-01-29T14:46:19.157Z,10.10
2023-01-29T14:51:23.925Z,9.90
2023-01-29T14:56:45.730Z,9.60
2023-01-29T15:01:51.252Z,9.20
2023-01-29T15:06:55.891Z,9.00
2023-01-29T15:11:57.915Z,8.70
2023-01-29T15:17:23.051Z,8.60
2023-01-29T15:22:26.122Z,8.30
2023-01-29T15:27:29.085Z,8.10
2023-01-29T15:32:33.332Z,8.20
2023-01-29T15:37:37.256Z,7.90
2023-01-29T15:42:46.250Z,7.70
2023-01-29T15:47:48.798Z,7.60
2023-01-29T15:52:51.902Z,7.60
2023-01-29T15:57:54.326Z,7.40
2023-01-29T16:02:58.143Z,7.20
2023-01-29T16:08:00.698Z,7.00
2023-01-29T16:13:03.050Z,7.20
2023-01-29T16:18:19.212Z,6.80
2023-01-29T16:23:28.863Z,6.70
2023-01-29T16:28:31.037Z,6.60
2023-01-29T16:33:36.160Z,6.50
2023-01-29T16:38:43.134Z,6.20
2023-01-29T16:43:45.221Z,6.10
2023-01-29T16:48:47.715Z,6.10
2023-01-29T16:53:55.716Z,5.90
2023-01-29T16:58:58.199Z,5.80
2023-01-29T17:04:05.773Z,5.60
2023-01-29T17:09:08.070Z,5.50
2023-01-29T17:14:16.772Z,5.40
2023-01-29T17:19:20.951Z,5.10
2023-01-29T17:24:23.108Z,4.90
2023-01-29T17:29:27.674Z,4.70
2023-01-29T17:34:29.714Z,4.50
2023-01-29T17:39:31.859Z,4.40
2023-01-29T17:44:34.431Z,4.20
2023-01-29T17:49:37.396Z,4.00
2023-01-29T17:54:39.386Z,3.90
2023-01-29T17:59:41.437Z,3.80
2023-01-29T18:04:43.461Z,3.70
2023-01-29T18:09:45.464Z,3.70
2023-01-29T18:14:47.455Z,3.60
2023-01-29T18:19:49.741Z,3.50
2023-01-29T18:24:51.776Z,3.40
2023-01-29T18:29:53.911Z,3.40
2023-01-29T18:34:56.166Z,3.30
2023-01-29T18:39:58.245Z,3.60
2023-01-29T18:45:00.336Z,3.30
2023-01-29T18:50:02.414Z,3.30
2023-01-29T18:55:04.577Z,3.30
2023-01-29T19:00:07.150Z,3.20
2023-01-29T19:05:09.417Z,3.20
2023-01-29T19:10:12.911Z,3.20
2023-01-29T19:15:16.257Z,3.20
2023-01-29T19:20:18.632Z,3.20
2023-01-29T19:25:20.988Z,3.10
2023-01-29T19:30:23.663Z,3.00
2023-01-29T19:35:25.703Z,3.00
2023-01-29T19:40:27.735Z,3.00
2023-01-29T19:45:43.186Z,2.90
2023-01-29T19:50:59.118Z,2.80
2023-01-29T19:56:01.128Z,2.80
2023-01-29T20:01:05.481Z,2.70
2023-01-29T20:06:08.379Z,2.80
2023-01-29T20:11:11.999Z,2.70
2023-01-29T20:16:14.239Z,2.60
2023-01-29T20:21:17.461Z,2.70
2023-01-29T20:26:20.317Z,2.60
2023-01-29T20:31:22.388Z,2.60
2023-01-29T20:36:24.472Z,2.50
2023-01-29T20:41:26.509Z,2.50
2023-01-29T20:46:28.550Z,2.40
2023-01-29T20:51:30.756Z,2.40
2023-01-29T20:56:39.747Z,2.40
2023-01-29T21:01:45.904Z,2.40
2023-01-29T21:06:47.982Z,2.50
2023-01-29T21:11:50.040Z,2.50
2023-01-29T21:16:52.139Z,2.80
2023-01-29T21:21:54.484Z,2.90
2023-01-29T21:26:56.485Z,3.00
2023-01-29T21:31:58.570Z,3.10
2023-01-29T21:37:00.615Z,3.20
2023-01-29T21:42:21.375Z,3.30
2023-01-29T21:47:23.411Z,3.30
2023-01-29T21:52:25.368Z,3.40
2023-01-29T21:57:27.394Z,3.50
2023-01-29T22:02:32.168Z,3.50
2023-01-29T22:07:34.485Z,3.60
2023-01-29T22:12:37.276Z,3.60
2023-01-29T22:17:41.302Z,3.70
2023-01-29T22:22:43.379Z,3.80
2023-01-29T22:27:45.377Z,3.90
2023-01-29T22:32:47.406Z,4.00
2023-01-29T22:37:49.428Z,4.10
2023-01-29T22:42:51.658Z,4.20
2023-01-29T22:47:53.662Z,4.20
2023-01-29T22:52:55.646Z,4.20
2023-01-29T22:57:57.664Z,4.20
2023-01-29T23:02:59.668Z,4.30
2023-01-29T23:08:01.715Z,4.40
2023-01-29T23:13:03.784Z,4.50
2023-01-29T23:18:06.466Z,4.50
2023-01-29T23:23:08.456Z,4.50
2023-01-29T23:28:10.434Z,4.60
2023-01-29T23:33:12.441Z,4.60
2023-01-29T23:38:14.459Z,4.60
2023-01-29T23:43:16.412Z,4.60
2023-01-29T23:48:18.743Z,4.60
2023-01-29T23:53:20.753Z,4.60
2023-01-29T23:58:22.875Z,4.60
